Southern Sonoma County Latest

20 Stations

15 Minute Data
as of 9/4/26 10:24 PM PDT
Station Date Time Temp (°F) RH (%) Dew Pt (°F) Wind Spd (mph) Wind Dir (°) Wind Gust (mph) Latest Rain (In) Daily Rain (In) Daily Min Temp (°F) Daily Max Temp (°F)
Upper Rincon Valley 9/4/26 2215 53.3   4.6 92   5 50.9   5.9 1.5   1.1 N | 5 2.4   0.4 0.00 0.00 48.8   6.5 74.0   7.1
Lower Bennett Valley 9/4/26 2215 55.6   3.5 92   6 53.2   5.2 1.3   0.3 SE | 144 2.8   0.3 0.00 0.00 47.5   7.6 75.2   9.0
Kenwood (Wildwood) 9/4/26 2215 54.6   4.9 88   7 51.3   6.9 2.2   2.2 NE | 36 2.9   2.9 0.00 0.00 52.7   3.4 76.4   8.8
Crane Creek (Ranch 62) 9/4/26 2215 55.4   4.6 90   5 52.6   6.1 1.1   1.1 NE | 51 2.1   2.1 0.00 0.00 53.6   6.1 78.7   10.2
Rohnert Park-West (Stony Point) 9/4/26 2215 55.2   5.3 92   2 53.1   5.8 0.7   3.4 E | 84 3.3   6.2 0.00 0.01 50.0   10.0 73.6   4.9
Rice-Spivak Vineyard 9/4/26 2215 56.8   3.3 - - - - - - - 48.1   11.9 74.6   5.1
Cartograph Wines Base 9/4/26 2215 57.2   2.1 93   3 55.4   2.9 3.0   2.7 SSW | 196 5.2   7.2 0.00 0.00 50.0   9.4 71.8   3.5
Cartograph Wines Remote 9/4/26 2215 55.4   4.6 - - - - - - - 49.4   10.7 73.2   3.7
Penngrove (Asellus) 9/4/26 2215 54.2   6.2 93   0 52.2   6.2 0.4   0.2 NNW | 340 2.1   1.1 0.00 0.09 52.3   5.1 75.3   6.6
Sonoma Valley (Bedrock) 9/4/26 2215 55.0   4.1 84   10 50.1   7.0 - - - 0.00 0.00 48.6   6.0 75.3   9.6
Sonoma-West (Arnold) 9/4/26 2215 57.4   3.4 82   9 52.1   6.1 1.6   0.0 WSW | 250 4.6   1.7 0.00 0.01 48.8   7.3 77.7   10.2
Sonoma Valley HS 9/4/26 2215 58.5   1.8 89   11 55.2   5.0 1.0   0.1 WSW | 255 2.8   1.1 0.00 0.00 51.6   4.0 77.2   10.9
Sonoma East (Bundschu01) 9/4/26 2215 56.5   4.2 84   8 51.9   6.7 1.0   0.5 NNE | 12 2.2   0.4 0.00 0.00 49.4   1.9 77.9   9.3
Sonoma-SE (Napoli) 9/4/26 2215 57.9   2.6 84   9 53.0   5.4 1.3   1.3 NNW | 339 3.8   3.8 0.00 0.01 52.3   0.1 79.4   10.2
Schellville (Sasaki) 2/7/26 1900 53.4   2.2 88   10 49.9   1.0 3.3   1.8 SW | 225 5.8   4.0 0.00 0.00 47.0   0.8 62.8   8.4
Petaluma (Ranch 10) 9/4/26 2215 57.9   2.9 87   4 54.2   4.1 0.7   0.0 NW | 325 2.9   0.3 0.00 0.00 54.9   3.0 76.3   8.2
Carneros (Ranch 71) 9/4/26 2215 57.9   2.0 88   5 54.4   3.6 5.5   4.9 WNW | 290 9.2   6.7 0.00 0.00 54.0   3.4 75.6   7.6
Ricci Vineyards (Carneros) 9/4/26 2215 58.7   2.1 87   4 54.8   3.5 8.2   3.9 WNW | 293 12.4   5.4 0.00 0.01 53.6   0.5 77.6   8.5
Carneros Upper (Ranch 81) 9/4/26 2215 57.5   2.1 88   12 53.9   5.6 5.4   5.1 WNW | 286 10.9   6.9 - - 53.4   3.7 76.6   9.3
Carneros Lower (Ranch 81) 9/4/26 2215 58.1   1.5 87   87 54.3   112.3 2.7   2.7 NNW | 344 6.0   6.0 0.00 0.01 52.4   1.3 80.1   11.6
Max     58.7 93 55.4 8.2 - 12.4 0.00 0.09 54.9 80.1
Avg     56.5 88 53.1 2.3 - 4.7 0.00 - - -
Min     53.3 82 50.1 0.4 - 2.1 0.00 0.00 47.5 71.8